This is the latest recevied weather packets stored in our database for station/object K3BAY-1. If no packets are shown the sender has not sent any weather packets the latest 10 day(s).
| Time | Temp. | Humidity | Pressure | Rain* | Wind** | Luminosity | Snow |
|---|---|---|---|---|---|---|---|
| 1777238148 | 13.33° C | 76% | 1018.3 hPa | 0 mm | - | 225 W/m² | - |
| 1777237845 | 13.89° C | 74% | 1018 hPa | 0 mm | - | 270 W/m² | - |
| 1777237541 | 13.89° C | 74% | 1018 hPa | 0 mm | - | 270 W/m² | - |
| 1777237239 | 13.89° C | 74% | 1018.3 hPa | 0 mm | - | 231 W/m² | - |
| 1777236936 | 13.89° C | 75% | 1018 hPa | 0 mm | - | 285 W/m² | - |
| 1777236633 | 13.89° C | 73% | 1018 hPa | 0 mm | - | 255 W/m² | - |
| 1777236328 | 12.78° C | 76% | 1018 hPa | 0 mm | - | 298 W/m² | - |
| 1777236024 | 12.78° C | 78% | 1018.3 hPa | 0 mm | - | 239 W/m² | - |
| 1777235720 | 12.78° C | 78% | 1018 hPa | 0 mm | - | 232 W/m² | - |
| 1777235418 | 13.33° C | 75% | 1018 hPa | 0 mm | - | 203 W/m² | - |
| 1777235114 | 13.33° C | 76% | 1018 hPa | 0 mm | - | 230 W/m² | - |
| 1777234810 | 12.78° C | 76% | 1018 hPa | 0 mm | - | 198 W/m² | - |
| 1777234506 | 12.78° C | 76% | 1018 hPa | 0 mm | - | 198 W/m² | - |
| 1777234206 | 12.22° C | 76% | 1018 hPa | 0 mm | - | 232 W/m² | - |
| 1777233903 | 12.22° C | 77% | 1018 hPa | 0 mm | - | 240 W/m² | - |
| 1777233599 | 12.22° C | 77% | 1018 hPa | 0 mm | - | 257 W/m² | - |
| 1777233298 | 12.22° C | 77% | 1018 hPa | 0 mm | - | 239 W/m² | - |
| 1777232994 | 12.22° C | 78% | 1018.3 hPa | 0 mm | - | 253 W/m² | - |
| 1777232691 | 12.22° C | 79% | 1018 hPa | 0 mm | - | 266 W/m² | - |
| 1777232390 | 12.22° C | 78% | 1018.3 hPa | 0 mm | - | 285 W/m² | - |
| 1777232085 | 12.22° C | 77% | 1018 hPa | 0 mm | - | 248 W/m² | - |
| 1777231783 | 12.22° C | 79% | 1018.3 hPa | 0 mm | - | 244 W/m² | - |
| 1777231479 | 11.67° C | 79% | 1018.3 hPa | 0 mm | - | 246 W/m² | - |
| 1777231176 | 11.67° C | 79% | 1018.3 hPa | 0 mm | - | 246 W/m² | - |
| 1777230871 | 12.22° C | 79% | 1018.3 hPa | 0 mm | - | 192 W/m² | - |
* Rain latest hour (hover to see other rain measurements)
** Current wind speed in m/s (hover to see current wind gust speed)